sensor_id;sensor_type;location;lat;lon;timestamp;P1;durP1;ratioP1;P2;durP2;ratioP2
19985;SDS011;10154;52.474;10.768;2023-03-03T00:00:34;23.10;;;9.37;;
19985;SDS011;10154;52.474;10.768;2023-03-03T00:03:00;23.47;;;9.30;;
19985;SDS011;10154;52.474;10.768;2023-03-03T00:05:27;24.23;;;9.60;;
19985;SDS011;10154;52.474;10.768;2023-03-03T00:07:52;24.27;;;9.70;;
19985;SDS011;10154;52.474;10.768;2023-03-03T00:10:17;23.07;;;8.67;;
19985;SDS011;10154;52.474;10.768;2023-03-03T00:12:47;27.13;;;10.07;;
19985;SDS011;10154;52.474;10.768;2023-03-03T00:15:17;25.10;;;9.03;;
19985;SDS011;10154;52.474;10.768;2023-03-03T00:17:49;21.93;;;8.23;;
19985;SDS011;10154;52.474;10.768;2023-03-03T00:20:25;22.37;;;8.60;;
19985;SDS011;10154;52.474;10.768;2023-03-03T00:22:53;28.47;;;11.03;;
19985;SDS011;10154;52.474;10.768;2023-03-03T00:27:44;21.70;;;8.83;;
19985;SDS011;10154;52.474;10.768;2023-03-03T00:30:17;23.17;;;8.73;;
19985;SDS011;10154;52.474;10.768;2023-03-03T00:32:48;21.40;;;8.80;;
19985;SDS011;10154;52.474;10.768;2023-03-03T00:35:25;22.03;;;8.97;;
19985;SDS011;10154;52.474;10.768;2023-03-03T00:37:58;24.90;;;9.43;;
19985;SDS011;10154;52.474;10.768;2023-03-03T00:40:35;22.50;;;8.10;;
19985;SDS011;10154;52.474;10.768;2023-03-03T00:43:04;26.20;;;10.00;;
19985;SDS011;10154;52.474;10.768;2023-03-03T00:45:43;23.13;;;9.30;;
19985;SDS011;10154;52.474;10.768;2023-03-03T00:48:23;22.27;;;8.53;;
19985;SDS011;10154;52.474;10.768;2023-03-03T00:50:56;21.33;;;8.53;;
19985;SDS011;10154;52.474;10.768;2023-03-03T00:53:26;23.07;;;8.87;;
19985;SDS011;10154;52.474;10.768;2023-03-03T00:55:53;18.83;;;8.33;;
19985;SDS011;10154;52.474;10.768;2023-03-03T00:58:19;24.83;;;9.23;;
19985;SDS011;10154;52.474;10.768;2023-03-03T01:00:46;22.43;;;9.20;;
19985;SDS011;10154;52.474;10.768;2023-03-03T01:03:14;22.23;;;8.43;;
19985;SDS011;10154;52.474;10.768;2023-03-03T01:05:41;20.73;;;7.43;;
19985;SDS011;10154;52.474;10.768;2023-03-03T01:08:07;26.17;;;9.10;;
19985;SDS011;10154;52.474;10.768;2023-03-03T01:10:33;22.23;;;8.27;;
19985;SDS011;10154;52.474;10.768;2023-03-03T01:13:02;19.70;;;7.93;;
19985;SDS011;10154;52.474;10.768;2023-03-03T01:15:28;24.90;;;9.13;;
19985;SDS011;10154;52.474;10.768;2023-03-03T01:17:54;25.67;;;9.60;;
19985;SDS011;10154;52.474;10.768;2023-03-03T01:20:19;26.97;;;9.87;;
19985;SDS011;10154;52.474;10.768;2023-03-03T01:22:45;22.87;;;8.33;;
19985;SDS011;10154;52.474;10.768;2023-03-03T01:25:11;22.00;;;8.23;;
19985;SDS011;10154;52.474;10.768;2023-03-03T01:27:36;24.50;;;9.60;;
19985;SDS011;10154;52.474;10.768;2023-03-03T01:30:03;27.03;;;9.30;;
19985;SDS011;10154;52.474;10.768;2023-03-03T01:32:29;21.67;;;8.50;;
19985;SDS011;10154;52.474;10.768;2023-03-03T01:34:54;26.27;;;9.37;;
19985;SDS011;10154;52.474;10.768;2023-03-03T01:37:20;23.67;;;8.70;;
19985;SDS011;10154;52.474;10.768;2023-03-03T01:39:51;23.93;;;8.90;;
19985;SDS011;10154;52.474;10.768;2023-03-03T01:42:17;24.90;;;9.13;;
19985;SDS011;10154;52.474;10.768;2023-03-03T01:44:43;26.77;;;9.57;;
19985;SDS011;10154;52.474;10.768;2023-03-03T01:47:12;22.73;;;9.40;;
19985;SDS011;10154;52.474;10.768;2023-03-03T01:49:49;24.23;;;9.27;;
19985;SDS011;10154;52.474;10.768;2023-03-03T01:52:26;25.60;;;9.33;;
19985;SDS011;10154;52.474;10.768;2023-03-03T01:55:02;24.77;;;9.20;;
19985;SDS011;10154;52.474;10.768;2023-03-03T01:57:31;27.17;;;9.80;;
19985;SDS011;10154;52.474;10.768;2023-03-03T01:59:58;32.03;;;10.13;;
19985;SDS011;10154;52.474;10.768;2023-03-03T02:02:24;26.80;;;9.73;;
19985;SDS011;10154;52.474;10.768;2023-03-03T02:04:51;24.63;;;9.50;;
19985;SDS011;10154;52.474;10.768;2023-03-03T02:07:16;25.60;;;9.63;;
19985;SDS011;10154;52.474;10.768;2023-03-03T02:09:48;28.97;;;9.97;;
19985;SDS011;10154;52.474;10.768;2023-03-03T02:12:15;29.87;;;10.57;;
19985;SDS011;10154;52.474;10.768;2023-03-03T02:14:42;26.40;;;9.23;;
19985;SDS011;10154;52.474;10.768;2023-03-03T02:17:08;26.77;;;9.77;;
19985;SDS011;10154;52.474;10.768;2023-03-03T02:25:33;25.63;;;9.67;;
19985;SDS011;10154;52.474;10.768;2023-03-03T02:28:04;26.60;;;9.50;;
19985;SDS011;10154;52.474;10.768;2023-03-03T02:30:29;29.17;;;10.90;;
19985;SDS011;10154;52.474;10.768;2023-03-03T02:32:54;32.40;;;10.70;;
19985;SDS011;10154;52.474;10.768;2023-03-03T02:35:27;29.30;;;9.67;;
19985;SDS011;10154;52.474;10.768;2023-03-03T02:37:53;31.17;;;10.47;;
19985;SDS011;10154;52.474;10.768;2023-03-03T02:40:21;29.40;;;10.37;;
19985;SDS011;10154;52.474;10.768;2023-03-03T02:43:00;27.90;;;9.70;;
19985;SDS011;10154;52.474;10.768;2023-03-03T02:45:27;27.10;;;9.80;;
19985;SDS011;10154;52.474;10.768;2023-03-03T02:47:52;28.40;;;9.97;;
19985;SDS011;10154;52.474;10.768;2023-03-03T02:50:18;32.47;;;11.40;;
19985;SDS011;10154;52.474;10.768;2023-03-03T02:52:43;27.90;;;10.13;;
19985;SDS011;10154;52.474;10.768;2023-03-03T02:55:08;29.43;;;10.27;;
19985;SDS011;10154;52.474;10.768;2023-03-03T02:57:34;30.00;;;11.03;;
19985;SDS011;10154;52.474;10.768;2023-03-03T02:59:59;32.70;;;11.57;;
19985;SDS011;10154;52.474;10.768;2023-03-03T03:02:25;33.43;;;10.40;;
19985;SDS011;10154;52.474;10.768;2023-03-03T03:04:51;26.50;;;9.13;;
19985;SDS011;10154;52.474;10.768;2023-03-03T03:07:16;32.43;;;9.87;;
19985;SDS011;10154;52.474;10.768;2023-03-03T03:09:42;29.33;;;9.67;;
19985;SDS011;10154;52.474;10.768;2023-03-03T03:12:07;28.37;;;10.30;;
19985;SDS011;10154;52.474;10.768;2023-03-03T03:14:33;32.80;;;10.53;;
19985;SDS011;10154;52.474;10.768;2023-03-03T03:16:58;32.83;;;10.33;;
19985;SDS011;10154;52.474;10.768;2023-03-03T03:19:25;30.47;;;11.03;;
19985;SDS011;10154;52.474;10.768;2023-03-03T03:21:51;29.27;;;10.17;;
19985;SDS011;10154;52.474;10.768;2023-03-03T03:24:16;30.03;;;10.53;;
19985;SDS011;10154;52.474;10.768;2023-03-03T03:26:42;35.97;;;11.23;;
19985;SDS011;10154;52.474;10.768;2023-03-03T03:29:07;29.40;;;10.13;;
19985;SDS011;10154;52.474;10.768;2023-03-03T03:31:33;30.13;;;10.27;;
19985;SDS011;10154;52.474;10.768;2023-03-03T03:33:58;33.97;;;11.37;;
19985;SDS011;10154;52.474;10.768;2023-03-03T03:36:24;33.33;;;10.80;;
19985;SDS011;10154;52.474;10.768;2023-03-03T03:38:51;29.70;;;10.57;;
19985;SDS011;10154;52.474;10.768;2023-03-03T03:41:16;33.37;;;10.73;;
19985;SDS011;10154;52.474;10.768;2023-03-03T03:43:41;31.70;;;11.63;;
19985;SDS011;10154;52.474;10.768;2023-03-03T03:46:07;29.33;;;11.20;;
19985;SDS011;10154;52.474;10.768;2023-03-03T03:48:33;35.43;;;11.47;;
19985;SDS011;10154;52.474;10.768;2023-03-03T03:50:58;32.77;;;11.07;;
19985;SDS011;10154;52.474;10.768;2023-03-03T03:53:24;32.33;;;10.57;;
19985;SDS011;10154;52.474;10.768;2023-03-03T03:55:49;32.13;;;11.07;;
19985;SDS011;10154;52.474;10.768;2023-03-03T03:58:15;34.97;;;11.63;;
19985;SDS011;10154;52.474;10.768;2023-03-03T04:00:41;32.17;;;11.33;;
19985;SDS011;10154;52.474;10.768;2023-03-03T04:03:07;30.53;;;10.40;;
19985;SDS011;10154;52.474;10.768;2023-03-03T04:05:32;25.03;;;8.97;;
19985;SDS011;10154;52.474;10.768;2023-03-03T04:07:58;31.40;;;10.90;;
19985;SDS011;10154;52.474;10.768;2023-03-03T04:10:23;30.53;;;9.63;;
19985;SDS011;10154;52.474;10.768;2023-03-03T04:12:49;33.93;;;11.63;;
19985;SDS011;10154;52.474;10.768;2023-03-03T04:15:14;33.13;;;11.77;;
19985;SDS011;10154;52.474;10.768;2023-03-03T04:17:40;34.50;;;12.37;;
19985;SDS011;10154;52.474;10.768;2023-03-03T04:20:06;32.87;;;12.20;;
19985;SDS011;10154;52.474;10.768;2023-03-03T04:22:31;40.03;;;13.03;;
19985;SDS011;10154;52.474;10.768;2023-03-03T04:25:07;27.20;;;10.00;;
19985;SDS011;10154;52.474;10.768;2023-03-03T04:27:33;29.07;;;10.60;;
19985;SDS011;10154;52.474;10.768;2023-03-03T04:30:00;30.60;;;11.40;;
19985;SDS011;10154;52.474;10.768;2023-03-03T04:32:26;30.60;;;11.50;;
19985;SDS011;10154;52.474;10.768;2023-03-03T04:34:52;27.37;;;10.37;;
19985;SDS011;10154;52.474;10.768;2023-03-03T04:37:18;30.47;;;11.03;;
19985;SDS011;10154;52.474;10.768;2023-03-03T04:39:43;33.50;;;12.43;;
19985;SDS011;10154;52.474;10.768;2023-03-03T04:42:09;34.80;;;12.07;;
19985;SDS011;10154;52.474;10.768;2023-03-03T04:44:34;33.33;;;11.40;;
19985;SDS011;10154;52.474;10.768;2023-03-03T04:46:59;35.17;;;12.00;;
19985;SDS011;10154;52.474;10.768;2023-03-03T04:49:25;35.57;;;13.30;;
19985;SDS011;10154;52.474;10.768;2023-03-03T04:51:50;58.60;;;17.47;;
19985;SDS011;10154;52.474;10.768;2023-03-03T04:54:16;59.20;;;18.03;;
19985;SDS011;10154;52.474;10.768;2023-03-03T04:56:41;37.00;;;13.73;;
19985;SDS011;10154;52.474;10.768;2023-03-03T04:59:07;34.27;;;13.23;;
19985;SDS011;10154;52.474;10.768;2023-03-03T05:01:32;32.60;;;11.60;;
19985;SDS011;10154;52.474;10.768;2023-03-03T05:03:58;31.50;;;12.53;;
19985;SDS011;10154;52.474;10.768;2023-03-03T05:06:23;34.97;;;13.17;;
19985;SDS011;10154;52.474;10.768;2023-03-03T05:08:49;33.37;;;13.00;;
19985;SDS011;10154;52.474;10.768;2023-03-03T05:11:14;34.20;;;13.33;;
19985;SDS011;10154;52.474;10.768;2023-03-03T05:13:40;40.00;;;13.40;;
19985;SDS011;10154;52.474;10.768;2023-03-03T05:16:05;37.97;;;13.27;;
19985;SDS011;10154;52.474;10.768;2023-03-03T05:18:31;36.57;;;13.90;;
19985;SDS011;10154;52.474;10.768;2023-03-03T05:20:56;38.23;;;13.50;;
19985;SDS011;10154;52.474;10.768;2023-03-03T05:23:22;45.47;;;14.30;;
19985;SDS011;10154;52.474;10.768;2023-03-03T05:25:47;39.77;;;13.40;;
19985;SDS011;10154;52.474;10.768;2023-03-03T05:28:13;34.17;;;13.13;;
19985;SDS011;10154;52.474;10.768;2023-03-03T05:30:39;33.93;;;13.00;;
19985;SDS011;10154;52.474;10.768;2023-03-03T05:33:05;34.63;;;12.83;;
19985;SDS011;10154;52.474;10.768;2023-03-03T05:35:30;39.17;;;12.77;;
19985;SDS011;10154;52.474;10.768;2023-03-03T05:37:56;33.50;;;12.87;;
19985;SDS011;10154;52.474;10.768;2023-03-03T05:40:24;33.97;;;13.03;;
19985;SDS011;10154;52.474;10.768;2023-03-03T05:42:50;36.10;;;12.93;;
19985;SDS011;10154;52.474;10.768;2023-03-03T05:45:16;35.57;;;12.77;;
19985;SDS011;10154;52.474;10.768;2023-03-03T05:47:45;35.90;;;13.20;;
19985;SDS011;10154;52.474;10.768;2023-03-03T05:50:17;39.40;;;13.00;;
19985;SDS011;10154;52.474;10.768;2023-03-03T05:52:43;34.27;;;12.33;;
19985;SDS011;10154;52.474;10.768;2023-03-03T05:55:09;34.67;;;13.23;;
19985;SDS011;10154;52.474;10.768;2023-03-03T05:57:35;36.13;;;12.40;;
19985;SDS011;10154;52.474;10.768;2023-03-03T06:00:03;31.33;;;12.57;;
19985;SDS011;10154;52.474;10.768;2023-03-03T06:02:30;34.07;;;12.87;;
19985;SDS011;10154;52.474;10.768;2023-03-03T06:04:55;31.57;;;12.17;;
19985;SDS011;10154;52.474;10.768;2023-03-03T06:07:21;31.13;;;12.60;;
19985;SDS011;10154;52.474;10.768;2023-03-03T06:09:46;35.27;;;12.37;;
19985;SDS011;10154;52.474;10.768;2023-03-03T06:12:11;33.10;;;11.57;;
19985;SDS011;10154;52.474;10.768;2023-03-03T06:14:40;29.00;;;12.03;;
19985;SDS011;10154;52.474;10.768;2023-03-03T06:17:05;30.77;;;12.10;;
19985;SDS011;10154;52.474;10.768;2023-03-03T06:19:30;34.53;;;12.47;;
19985;SDS011;10154;52.474;10.768;2023-03-03T06:21:56;33.40;;;12.77;;
19985;SDS011;10154;52.474;10.768;2023-03-03T06:24:21;35.97;;;12.00;;
19985;SDS011;10154;52.474;10.768;2023-03-03T06:26:49;29.87;;;11.80;;
19985;SDS011;10154;52.474;10.768;2023-03-03T06:29:15;32.07;;;11.80;;
19985;SDS011;10154;52.474;10.768;2023-03-03T06:31:40;31.43;;;10.97;;
19985;SDS011;10154;52.474;10.768;2023-03-03T06:34:07;30.17;;;11.63;;
19985;SDS011;10154;52.474;10.768;2023-03-03T06:36:32;30.70;;;12.67;;
19985;SDS011;10154;52.474;10.768;2023-03-03T06:39:00;35.17;;;12.97;;
19985;SDS011;10154;52.474;10.768;2023-03-03T06:41:31;37.10;;;11.80;;
19985;SDS011;10154;52.474;10.768;2023-03-03T06:43:57;30.63;;;12.33;;
19985;SDS011;10154;52.474;10.768;2023-03-03T06:46:24;30.53;;;11.97;;
19985;SDS011;10154;52.474;10.768;2023-03-03T06:48:49;30.83;;;12.40;;
19985;SDS011;10154;52.474;10.768;2023-03-03T06:53:47;33.00;;;11.50;;
19985;SDS011;10154;52.474;10.768;2023-03-03T06:56:23;26.30;;;10.90;;
19985;SDS011;10154;52.474;10.768;2023-03-03T06:58:50;32.83;;;11.27;;
19985;SDS011;10154;52.474;10.768;2023-03-03T07:01:18;30.50;;;12.10;;
19985;SDS011;10154;52.474;10.768;2023-03-03T07:03:43;32.83;;;12.00;;
19985;SDS011;10154;52.474;10.768;2023-03-03T07:06:42;28.83;;;11.93;;
19985;SDS011;10154;52.474;10.768;2023-03-03T07:09:05;30.53;;;12.47;;
19985;SDS011;10154;52.474;10.768;2023-03-03T07:11:33;34.17;;;12.20;;
19985;SDS011;10154;52.474;10.768;2023-03-03T07:14:08;33.80;;;11.77;;
19985;SDS011;10154;52.474;10.768;2023-03-03T07:16:39;31.53;;;12.27;;
19985;SDS011;10154;52.474;10.768;2023-03-03T07:19:08;29.57;;;11.30;;
19985;SDS011;10154;52.474;10.768;2023-03-03T07:21:45;31.47;;;12.13;;
19985;SDS011;10154;52.474;10.768;2023-03-03T07:24:31;33.73;;;12.63;;
19985;SDS011;10154;52.474;10.768;2023-03-03T07:27:05;32.57;;;12.10;;
19985;SDS011;10154;52.474;10.768;2023-03-03T07:29:36;32.67;;;11.50;;
19985;SDS011;10154;52.474;10.768;2023-03-03T07:32:05;30.40;;;11.80;;
19985;SDS011;10154;52.474;10.768;2023-03-03T07:34:53;32.03;;;11.77;;
19985;SDS011;10154;52.474;10.768;2023-03-03T07:37:36;37.83;;;12.83;;
19985;SDS011;10154;52.474;10.768;2023-03-03T07:40:22;30.83;;;11.73;;
19985;SDS011;10154;52.474;10.768;2023-03-03T07:42:59;31.07;;;11.67;;
19985;SDS011;10154;52.474;10.768;2023-03-03T07:45:32;31.40;;;12.10;;
19985;SDS011;10154;52.474;10.768;2023-03-03T07:50:33;29.37;;;12.60;;
19985;SDS011;10154;52.474;10.768;2023-03-03T07:52:59;32.20;;;13.13;;
19985;SDS011;10154;52.474;10.768;2023-03-03T07:55:28;32.17;;;12.60;;
19985;SDS011;10154;52.474;10.768;2023-03-03T07:57:58;34.03;;;12.57;;
19985;SDS011;10154;52.474;10.768;2023-03-03T08:03:43;30.83;;;11.37;;
19985;SDS011;10154;52.474;10.768;2023-03-03T08:09:01;30.57;;;11.27;;
19985;SDS011;10154;52.474;10.768;2023-03-03T08:11:50;30.00;;;12.10;;
19985;SDS011;10154;52.474;10.768;2023-03-03T08:14:20;28.90;;;11.13;;
19985;SDS011;10154;52.474;10.768;2023-03-03T08:16:51;30.13;;;11.40;;
19985;SDS011;10154;52.474;10.768;2023-03-03T08:19:17;32.70;;;11.73;;
19985;SDS011;10154;52.474;10.768;2023-03-03T08:21:42;27.47;;;11.43;;
19985;SDS011;10154;52.474;10.768;2023-03-03T08:24:08;31.67;;;12.17;;
19985;SDS011;10154;52.474;10.768;2023-03-03T08:26:33;32.53;;;11.27;;
19985;SDS011;10154;52.474;10.768;2023-03-03T08:28:59;27.10;;;11.50;;
19985;SDS011;10154;52.474;10.768;2023-03-03T08:31:25;29.80;;;10.87;;
19985;SDS011;10154;52.474;10.768;2023-03-03T08:33:51;29.77;;;10.90;;
19985;SDS011;10154;52.474;10.768;2023-03-03T08:36:16;32.80;;;11.97;;
19985;SDS011;10154;52.474;10.768;2023-03-03T08:38:42;29.50;;;12.17;;
19985;SDS011;10154;52.474;10.768;2023-03-03T08:41:07;28.30;;;9.73;;
19985;SDS011;10154;52.474;10.768;2023-03-03T08:43:32;24.70;;;10.23;;
19985;SDS011;10154;52.474;10.768;2023-03-03T08:45:59;27.37;;;10.53;;
19985;SDS011;10154;52.474;10.768;2023-03-03T08:48:25;29.77;;;12.17;;
19985;SDS011;10154;52.474;10.768;2023-03-03T08:50:51;29.17;;;10.83;;
19985;SDS011;10154;52.474;10.768;2023-03-03T08:53:17;28.50;;;11.67;;
19985;SDS011;10154;52.474;10.768;2023-03-03T08:55:43;25.63;;;10.10;;
19985;SDS011;10154;52.474;10.768;2023-03-03T08:58:09;29.53;;;11.77;;
19985;SDS011;10154;52.474;10.768;2023-03-03T09:00:35;27.37;;;10.97;;
19985;SDS011;10154;52.474;10.768;2023-03-03T09:03:00;26.37;;;10.77;;
19985;SDS011;10154;52.474;10.768;2023-03-03T09:05:26;28.73;;;11.20;;
19985;SDS011;10154;52.474;10.768;2023-03-03T09:07:55;24.13;;;10.37;;
19985;SDS011;10154;52.474;10.768;2023-03-03T09:10:23;25.37;;;10.10;;
19985;SDS011;10154;52.474;10.768;2023-03-03T09:12:53;25.20;;;9.77;;
19985;SDS011;10154;52.474;10.768;2023-03-03T09:15:26;23.93;;;10.30;;
19985;SDS011;10154;52.474;10.768;2023-03-03T09:17:53;30.97;;;11.77;;
19985;SDS011;10154;52.474;10.768;2023-03-03T09:20:38;24.43;;;9.77;;
19985;SDS011;10154;52.474;10.768;2023-03-03T09:23:47;22.67;;;10.13;;
19985;SDS011;10154;52.474;10.768;2023-03-03T09:28:50;25.13;;;10.07;;
19985;SDS011;10154;52.474;10.768;2023-03-03T09:31:33;24.23;;;10.37;;
19985;SDS011;10154;52.474;10.768;2023-03-03T09:34:08;27.53;;;11.57;;
19985;SDS011;10154;52.474;10.768;2023-03-03T09:36:38;27.07;;;10.17;;
19985;SDS011;10154;52.474;10.768;2023-03-03T09:39:38;21.80;;;9.77;;
19985;SDS011;10154;52.474;10.768;2023-03-03T09:58:03;21.87;;;9.67;;
19985;SDS011;10154;52.474;10.768;2023-03-03T10:03:28;23.00;;;10.33;;
19985;SDS011;10154;52.474;10.768;2023-03-03T10:06:21;22.47;;;9.53;;
19985;SDS011;10154;52.474;10.768;2023-03-03T10:11:31;24.37;;;9.83;;
19985;SDS011;10154;52.474;10.768;2023-03-03T10:19:46;21.60;;;9.93;;
19985;SDS011;10154;52.474;10.768;2023-03-03T10:39:04;22.60;;;10.10;;
19985;SDS011;10154;52.474;10.768;2023-03-03T10:41:54;23.70;;;9.87;;
19985;SDS011;10154;52.474;10.768;2023-03-03T10:47:13;23.63;;;10.30;;
19985;SDS011;10154;52.474;10.768;2023-03-03T10:52:31;24.43;;;10.57;;
19985;SDS011;10154;52.474;10.768;2023-03-03T11:00:28;24.23;;;9.30;;
19985;SDS011;10154;52.474;10.768;2023-03-03T11:08:45;22.03;;;9.63;;
19985;SDS011;10154;52.474;10.768;2023-03-03T11:22:02;21.53;;;10.07;;
19985;SDS011;10154;52.474;10.768;2023-03-03T11:38:17;19.70;;;8.27;;
19985;SDS011;10154;52.474;10.768;2023-03-03T11:40:56;18.77;;;9.17;;
19985;SDS011;10154;52.474;10.768;2023-03-03T11:43:41;19.13;;;9.27;;
19985;SDS011;10154;52.474;10.768;2023-03-03T11:46:21;19.00;;;9.33;;
19985;SDS011;10154;52.474;10.768;2023-03-03T11:53:57;17.07;;;8.77;;
19985;SDS011;10154;52.474;10.768;2023-03-03T12:47:05;18.23;;;9.40;;
19985;SDS011;10154;52.474;10.768;2023-03-03T12:49:42;18.20;;;9.00;;
19985;SDS011;10154;52.474;10.768;2023-03-03T12:52:25;15.70;;;8.63;;
19985;SDS011;10154;52.474;10.768;2023-03-03T13:19:43;17.57;;;9.33;;
19985;SDS011;10154;52.474;10.768;2023-03-03T13:22:27;18.57;;;8.83;;
19985;SDS011;10154;52.474;10.768;2023-03-03T13:27:43;20.00;;;9.80;;
19985;SDS011;10154;52.474;10.768;2023-03-03T13:30:18;19.63;;;9.93;;
19985;SDS011;10154;52.474;10.768;2023-03-03T13:32:53;19.00;;;9.63;;
19985;SDS011;10154;52.474;10.768;2023-03-03T13:38:11;20.07;;;9.67;;
19985;SDS011;10154;52.474;10.768;2023-03-03T13:40:40;19.20;;;9.23;;
19985;SDS011;10154;52.474;10.768;2023-03-03T13:43:09;18.03;;;9.47;;
19985;SDS011;10154;52.474;10.768;2023-03-03T13:51:30;24.43;;;10.80;;
19985;SDS011;10154;52.474;10.768;2023-03-03T13:54:08;21.17;;;10.03;;
19985;SDS011;10154;52.474;10.768;2023-03-03T14:01:54;20.50;;;9.97;;
19985;SDS011;10154;52.474;10.768;2023-03-03T14:04:29;18.03;;;8.40;;
19985;SDS011;10154;52.474;10.768;2023-03-03T14:06:56;22.57;;;9.07;;
19985;SDS011;10154;52.474;10.768;2023-03-03T14:09:55;20.93;;;9.73;;
19985;SDS011;10154;52.474;10.768;2023-03-03T14:12:50;22.20;;;9.97;;
19985;SDS011;10154;52.474;10.768;2023-03-03T14:15:25;28.17;;;11.67;;
19985;SDS011;10154;52.474;10.768;2023-03-03T14:18:02;23.90;;;10.47;;
19985;SDS011;10154;52.474;10.768;2023-03-03T14:20:34;26.10;;;10.93;;
19985;SDS011;10154;52.474;10.768;2023-03-03T14:23:19;27.83;;;11.73;;
19985;SDS011;10154;52.474;10.768;2023-03-03T14:28:29;21.63;;;9.87;;
19985;SDS011;10154;52.474;10.768;2023-03-03T14:31:30;28.27;;;10.80;;
19985;SDS011;10154;52.474;10.768;2023-03-03T14:34:04;31.13;;;12.07;;
19985;SDS011;10154;52.474;10.768;2023-03-03T14:36:56;34.93;;;13.07;;
19985;SDS011;10154;52.474;10.768;2023-03-03T14:39:31;31.60;;;13.30;;
19985;SDS011;10154;52.474;10.768;2023-03-03T14:41:59;36.17;;;14.27;;
19985;SDS011;10154;52.474;10.768;2023-03-03T14:47:11;33.27;;;13.73;;
19985;SDS011;10154;52.474;10.768;2023-03-03T14:49:42;33.93;;;11.93;;
19985;SDS011;10154;52.474;10.768;2023-03-03T14:52:17;34.33;;;13.53;;
19985;SDS011;10154;52.474;10.768;2023-03-03T14:54:49;33.43;;;13.13;;
19985;SDS011;10154;52.474;10.768;2023-03-03T14:59:56;32.57;;;12.03;;
19985;SDS011;10154;52.474;10.768;2023-03-03T15:04:50;34.80;;;12.43;;
19985;SDS011;10154;52.474;10.768;2023-03-03T15:07:36;35.33;;;11.93;;
19985;SDS011;10154;52.474;10.768;2023-03-03T15:10:04;35.57;;;13.47;;
19985;SDS011;10154;52.474;10.768;2023-03-03T15:15:18;39.93;;;13.80;;
19985;SDS011;10154;52.474;10.768;2023-03-03T15:28:42;37.63;;;13.93;;
19985;SDS011;10154;52.474;10.768;2023-03-03T15:31:30;39.63;;;13.03;;
19985;SDS011;10154;52.474;10.768;2023-03-03T15:36:45;37.43;;;14.53;;
19985;SDS011;10154;52.474;10.768;2023-03-03T15:47:27;35.37;;;13.43;;
19985;SDS011;10154;52.474;10.768;2023-03-03T15:56:11;33.17;;;12.27;;
19985;SDS011;10154;52.474;10.768;2023-03-03T16:05:32;36.17;;;13.70;;
19985;SDS011;10154;52.474;10.768;2023-03-03T16:10:16;33.73;;;12.37;;
19985;SDS011;10154;52.474;10.768;2023-03-03T16:12:53;32.23;;;10.53;;
19985;SDS011;10154;52.474;10.768;2023-03-03T16:15:46;32.43;;;12.87;;
19985;SDS011;10154;52.474;10.768;2023-03-03T16:23:56;30.33;;;10.87;;
19985;SDS011;10154;52.474;10.768;2023-03-03T16:32:24;37.20;;;13.40;;
19985;SDS011;10154;52.474;10.768;2023-03-03T16:35:14;30.60;;;12.27;;
19985;SDS011;10154;52.474;10.768;2023-03-03T16:38:02;32.80;;;11.80;;
19985;SDS011;10154;52.474;10.768;2023-03-03T16:40:49;34.00;;;13.27;;
19985;SDS011;10154;52.474;10.768;2023-03-03T16:43:21;32.27;;;12.60;;
19985;SDS011;10154;52.474;10.768;2023-03-03T16:46:42;41.43;;;13.67;;
19985;SDS011;10154;52.474;10.768;2023-03-03T16:48:59;37.20;;;15.00;;
19985;SDS011;10154;52.474;10.768;2023-03-03T16:51:37;40.80;;;14.53;;
19985;SDS011;10154;52.474;10.768;2023-03-03T16:56:33;36.20;;;14.30;;
19985;SDS011;10154;52.474;10.768;2023-03-03T17:21:45;39.70;;;13.97;;
19985;SDS011;10154;52.474;10.768;2023-03-03T17:32:58;44.73;;;14.77;;
19985;SDS011;10154;52.474;10.768;2023-03-03T17:35:37;34.83;;;13.43;;
19985;SDS011;10154;52.474;10.768;2023-03-03T17:38:30;41.33;;;13.67;;
19985;SDS011;10154;52.474;10.768;2023-03-03T17:46:55;42.47;;;14.87;;
19985;SDS011;10154;52.474;10.768;2023-03-03T17:57:01;44.20;;;15.47;;
19985;SDS011;10154;52.474;10.768;2023-03-03T17:59:44;47.97;;;14.50;;
19985;SDS011;10154;52.474;10.768;2023-03-03T18:08:17;47.87;;;15.67;;
19985;SDS011;10154;52.474;10.768;2023-03-03T18:10:51;55.57;;;17.03;;
19985;SDS011;10154;52.474;10.768;2023-03-03T18:22:56;63.77;;;20.13;;
19985;SDS011;10154;52.474;10.768;2023-03-03T18:25:23;57.67;;;17.73;;
19985;SDS011;10154;52.474;10.768;2023-03-03T18:31:18;45.83;;;14.77;;
19985;SDS011;10154;52.474;10.768;2023-03-03T18:33:35;65.47;;;21.43;;
19985;SDS011;10154;52.474;10.768;2023-03-03T18:36:12;54.50;;;18.50;;
19985;SDS011;10154;52.474;10.768;2023-03-03T18:38:40;61.53;;;19.33;;
19985;SDS011;10154;52.474;10.768;2023-03-03T18:41:10;76.87;;;23.53;;
19985;SDS011;10154;52.474;10.768;2023-03-03T18:46:09;72.63;;;21.20;;
19985;SDS011;10154;52.474;10.768;2023-03-03T18:48:50;70.33;;;22.17;;
19985;SDS011;10154;52.474;10.768;2023-03-03T19:01:55;76.40;;;21.67;;
19985;SDS011;10154;52.474;10.768;2023-03-03T19:20:49;82.53;;;24.60;;
19985;SDS011;10154;52.474;10.768;2023-03-03T19:25:45;81.40;;;21.23;;
19985;SDS011;10154;52.474;10.768;2023-03-03T19:41:26;79.10;;;23.40;;
19985;SDS011;10154;52.474;10.768;2023-03-03T19:44:17;87.10;;;25.53;;
19985;SDS011;10154;52.474;10.768;2023-03-03T19:55:01;74.67;;;21.33;;
19985;SDS011;10154;52.474;10.768;2023-03-03T19:57:39;68.67;;;20.93;;
19985;SDS011;10154;52.474;10.768;2023-03-03T20:00:17;69.10;;;20.40;;
19985;SDS011;10154;52.474;10.768;2023-03-03T20:14:21;73.80;;;21.80;;
19985;SDS011;10154;52.474;10.768;2023-03-03T20:16:57;77.73;;;23.27;;
19985;SDS011;10154;52.474;10.768;2023-03-03T20:22:46;67.10;;;19.63;;
19985;SDS011;10154;52.474;10.768;2023-03-03T20:25:26;69.87;;;19.53;;
19985;SDS011;10154;52.474;10.768;2023-03-03T20:28:05;71.80;;;21.27;;
19985;SDS011;10154;52.474;10.768;2023-03-03T20:31:02;64.23;;;18.57;;
19985;SDS011;10154;52.474;10.768;2023-03-03T20:33:50;63.43;;;19.17;;
19985;SDS011;10154;52.474;10.768;2023-03-03T20:36:36;60.40;;;18.30;;
19985;SDS011;10154;52.474;10.768;2023-03-03T20:50:43;60.27;;;17.30;;
19985;SDS011;10154;52.474;10.768;2023-03-03T21:01:51;56.43;;;15.67;;
19985;SDS011;10154;52.474;10.768;2023-03-03T21:04:29;54.53;;;16.87;;
19985;SDS011;10154;52.474;10.768;2023-03-03T21:07:02;52.37;;;15.27;;
19985;SDS011;10154;52.474;10.768;2023-03-03T21:09:32;58.63;;;17.07;;
19985;SDS011;10154;52.474;10.768;2023-03-03T21:12:25;46.83;;;14.17;;
19985;SDS011;10154;52.474;10.768;2023-03-03T21:15:37;49.40;;;15.77;;
19985;SDS011;10154;52.474;10.768;2023-03-03T21:18:42;51.67;;;17.43;;
19985;SDS011;10154;52.474;10.768;2023-03-03T21:20:56;45.60;;;15.63;;
19985;SDS011;10154;52.474;10.768;2023-03-03T21:23:29;53.80;;;18.27;;
19985;SDS011;10154;52.474;10.768;2023-03-03T21:26:03;53.17;;;15.70;;
19985;SDS011;10154;52.474;10.768;2023-03-03T21:28:33;49.07;;;16.10;;
19985;SDS011;10154;52.474;10.768;2023-03-03T21:31:14;50.03;;;14.60;;
19985;SDS011;10154;52.474;10.768;2023-03-03T21:33:58;48.60;;;17.83;;